sensor_id;sensor_type;location;lat;lon;timestamp;P1;durP1;ratioP1;P2;durP2;ratioP2
56581;SDS011;42463;52.214;21.238;2023-01-29T00:00:12;11.70;;;7.20;;
56581;SDS011;42463;52.214;21.238;2023-01-29T00:03:21;12.30;;;6.90;;
56581;SDS011;42463;52.214;21.238;2023-01-29T00:05:48;9.80;;;5.80;;
56581;SDS011;42463;52.214;21.238;2023-01-29T00:08:12;14.10;;;6.40;;
56581;SDS011;42463;52.214;21.238;2023-01-29T00:10:50;12.70;;;6.00;;
56581;SDS011;42463;52.214;21.238;2023-01-29T00:13:15;13.70;;;7.10;;
56581;SDS011;42463;52.214;21.238;2023-01-29T00:15:43;13.10;;;6.50;;
56581;SDS011;42463;52.214;21.238;2023-01-29T00:18:32;10.80;;;6.40;;
56581;SDS011;42463;52.214;21.238;2023-01-29T00:21:20;12.50;;;7.00;;
56581;SDS011;42463;52.214;21.238;2023-01-29T00:23:56;10.80;;;6.30;;
56581;SDS011;42463;52.214;21.238;2023-01-29T00:26:21;12.70;;;6.30;;
56581;SDS011;42463;52.214;21.238;2023-01-29T00:28:54;12.60;;;7.00;;
56581;SDS011;42463;52.214;21.238;2023-01-29T00:31:22;16.20;;;7.80;;
56581;SDS011;42463;52.214;21.238;2023-01-29T00:33:50;14.30;;;7.30;;
56581;SDS011;42463;52.214;21.238;2023-01-29T00:36:15;14.70;;;7.40;;
56581;SDS011;42463;52.214;21.238;2023-01-29T00:38:42;11.70;;;6.40;;
56581;SDS011;42463;52.214;21.238;2023-01-29T00:41:11;9.20;;;5.90;;
56581;SDS011;42463;52.214;21.238;2023-01-29T00:43:55;15.00;;;7.10;;
56581;SDS011;42463;52.214;21.238;2023-01-29T00:46:40;12.80;;;7.50;;
56581;SDS011;42463;52.214;21.238;2023-01-29T00:49:25;9.20;;;5.90;;
56581;SDS011;42463;52.214;21.238;2023-01-29T00:52:08;10.10;;;6.90;;
56581;SDS011;42463;52.214;21.238;2023-01-29T00:55:09;10.60;;;7.20;;
56581;SDS011;42463;52.214;21.238;2023-01-29T00:57:54;11.40;;;6.50;;
56581;SDS011;42463;52.214;21.238;2023-01-29T01:00:20;10.10;;;6.60;;
56581;SDS011;42463;52.214;21.238;2023-01-29T01:03:06;11.60;;;6.50;;
56581;SDS011;42463;52.214;21.238;2023-01-29T01:05:34;10.20;;;7.10;;
56581;SDS011;42463;52.214;21.238;2023-01-29T01:08:05;11.60;;;6.80;;
56581;SDS011;42463;52.214;21.238;2023-01-29T01:11:03;10.70;;;6.50;;
56581;SDS011;42463;52.214;21.238;2023-01-29T01:13:44;11.40;;;6.10;;
56581;SDS011;42463;52.214;21.238;2023-01-29T01:16:29;10.10;;;6.60;;
56581;SDS011;42463;52.214;21.238;2023-01-29T01:18:56;8.80;;;5.00;;
56581;SDS011;42463;52.214;21.238;2023-01-29T01:21:42;9.60;;;6.20;;
56581;SDS011;42463;52.214;21.238;2023-01-29T01:24:31;9.60;;;5.90;;
56581;SDS011;42463;52.214;21.238;2023-01-29T01:26:58;8.60;;;6.10;;
56581;SDS011;42463;52.214;21.238;2023-01-29T01:29:49;9.90;;;6.00;;
56581;SDS011;42463;52.214;21.238;2023-01-29T01:32:34;14.10;;;6.60;;
56581;SDS011;42463;52.214;21.238;2023-01-29T01:35:22;9.10;;;5.80;;
56581;SDS011;42463;52.214;21.238;2023-01-29T01:38:07;12.80;;;6.50;;
56581;SDS011;42463;52.214;21.238;2023-01-29T01:40:53;9.40;;;6.40;;
56581;SDS011;42463;52.214;21.238;2023-01-29T01:43:18;9.90;;;6.20;;
56581;SDS011;42463;52.214;21.238;2023-01-29T01:45:43;10.20;;;5.60;;
56581;SDS011;42463;52.214;21.238;2023-01-29T01:48:17;9.10;;;5.80;;
56581;SDS011;42463;52.214;21.238;2023-01-29T01:50:49;11.50;;;5.40;;
56581;SDS011;42463;52.214;21.238;2023-01-29T01:53:23;8.40;;;5.40;;
56581;SDS011;42463;52.214;21.238;2023-01-29T01:55:54;9.60;;;5.90;;
56581;SDS011;42463;52.214;21.238;2023-01-29T01:58:34;6.40;;;5.20;;
56581;SDS011;42463;52.214;21.238;2023-01-29T02:04:25;7.70;;;4.60;;
56581;SDS011;42463;52.214;21.238;2023-01-29T02:07:12;8.30;;;5.20;;
56581;SDS011;42463;52.214;21.238;2023-01-29T02:10:02;10.10;;;5.40;;
56581;SDS011;42463;52.214;21.238;2023-01-29T02:12:48;7.20;;;4.50;;
56581;SDS011;42463;52.214;21.238;2023-01-29T02:15:18;7.80;;;5.00;;
56581;SDS011;42463;52.214;21.238;2023-01-29T02:17:45;7.60;;;5.00;;
56581;SDS011;42463;52.214;21.238;2023-01-29T02:20:30;8.30;;;4.70;;
56581;SDS011;42463;52.214;21.238;2023-01-29T02:23:28;7.60;;;5.00;;
56581;SDS011;42463;52.214;21.238;2023-01-29T02:26:39;7.00;;;4.50;;
56581;SDS011;42463;52.214;21.238;2023-01-29T02:29:34;9.70;;;5.60;;
56581;SDS011;42463;52.214;21.238;2023-01-29T02:32:28;9.70;;;5.70;;
56581;SDS011;42463;52.214;21.238;2023-01-29T02:35:23;8.90;;;5.40;;
56581;SDS011;42463;52.214;21.238;2023-01-29T02:37:59;8.20;;;5.10;;
56581;SDS011;42463;52.214;21.238;2023-01-29T02:40:33;6.60;;;4.10;;
56581;SDS011;42463;52.214;21.238;2023-01-29T02:43:16;7.80;;;5.30;;
56581;SDS011;42463;52.214;21.238;2023-01-29T02:45:50;9.80;;;5.70;;
56581;SDS011;42463;52.214;21.238;2023-01-29T02:48:23;10.30;;;6.70;;
56581;SDS011;42463;52.214;21.238;2023-01-29T02:50:55;9.90;;;6.00;;
56581;SDS011;42463;52.214;21.238;2023-01-29T02:53:47;9.90;;;6.00;;
56581;SDS011;42463;52.214;21.238;2023-01-29T02:56:43;8.90;;;5.30;;
56581;SDS011;42463;52.214;21.238;2023-01-29T02:59:34;9.80;;;5.40;;
56581;SDS011;42463;52.214;21.238;2023-01-29T03:02:14;10.30;;;5.40;;
56581;SDS011;42463;52.214;21.238;2023-01-29T03:04:50;8.60;;;5.70;;
56581;SDS011;42463;52.214;21.238;2023-01-29T03:07:21;8.80;;;5.60;;
56581;SDS011;42463;52.214;21.238;2023-01-29T03:10:23;8.60;;;6.20;;
56581;SDS011;42463;52.214;21.238;2023-01-29T03:12:55;11.40;;;6.00;;
56581;SDS011;42463;52.214;21.238;2023-01-29T03:15:24;10.90;;;5.60;;
56581;SDS011;42463;52.214;21.238;2023-01-29T03:18:11;11.20;;;5.70;;
56581;SDS011;42463;52.214;21.238;2023-01-29T03:21:01;9.40;;;6.40;;
56581;SDS011;42463;52.214;21.238;2023-01-29T03:24:11;8.40;;;5.70;;
56581;SDS011;42463;52.214;21.238;2023-01-29T03:26:59;10.00;;;6.20;;
56581;SDS011;42463;52.214;21.238;2023-01-29T03:29:46;8.60;;;5.40;;
56581;SDS011;42463;52.214;21.238;2023-01-29T03:33:01;12.40;;;6.90;;
56581;SDS011;42463;52.214;21.238;2023-01-29T03:35:50;13.70;;;6.40;;
56581;SDS011;42463;52.214;21.238;2023-01-29T03:38:41;9.30;;;6.00;;
56581;SDS011;42463;52.214;21.238;2023-01-29T03:41:27;10.90;;;6.50;;
56581;SDS011;42463;52.214;21.238;2023-01-29T03:44:11;8.90;;;5.10;;
56581;SDS011;42463;52.214;21.238;2023-01-29T03:46:54;11.40;;;6.60;;
56581;SDS011;42463;52.214;21.238;2023-01-29T03:49:23;10.70;;;6.60;;
56581;SDS011;42463;52.214;21.238;2023-01-29T03:52:17;8.70;;;4.40;;
56581;SDS011;42463;52.214;21.238;2023-01-29T03:54:59;11.90;;;6.90;;
56581;SDS011;42463;52.214;21.238;2023-01-29T03:57:53;10.10;;;6.00;;
56581;SDS011;42463;52.214;21.238;2023-01-29T04:00:22;8.10;;;5.60;;
56581;SDS011;42463;52.214;21.238;2023-01-29T04:03:12;11.00;;;6.50;;
56581;SDS011;42463;52.214;21.238;2023-01-29T04:05:53;9.50;;;6.10;;
56581;SDS011;42463;52.214;21.238;2023-01-29T04:08:32;9.20;;;5.90;;
56581;SDS011;42463;52.214;21.238;2023-01-29T04:11:13;11.50;;;6.30;;
56581;SDS011;42463;52.214;21.238;2023-01-29T04:14:00;11.20;;;5.90;;
56581;SDS011;42463;52.214;21.238;2023-01-29T04:16:33;8.80;;;5.00;;
56581;SDS011;42463;52.214;21.238;2023-01-29T04:19:35;11.20;;;7.00;;
56581;SDS011;42463;52.214;21.238;2023-01-29T04:22:02;9.70;;;5.90;;
56581;SDS011;42463;52.214;21.238;2023-01-29T04:24:31;13.20;;;6.70;;
56581;SDS011;42463;52.214;21.238;2023-01-29T04:27:20;12.20;;;6.50;;
56581;SDS011;42463;52.214;21.238;2023-01-29T04:29:59;12.50;;;7.30;;
56581;SDS011;42463;52.214;21.238;2023-01-29T04:32:39;10.50;;;6.40;;
56581;SDS011;42463;52.214;21.238;2023-01-29T04:35:39;11.00;;;5.70;;
56581;SDS011;42463;52.214;21.238;2023-01-29T04:38:32;10.60;;;5.80;;
56581;SDS011;42463;52.214;21.238;2023-01-29T04:41:26;14.90;;;7.20;;
56581;SDS011;42463;52.214;21.238;2023-01-29T04:44:09;10.70;;;6.20;;
56581;SDS011;42463;52.214;21.238;2023-01-29T04:46:55;10.60;;;6.60;;
56581;SDS011;42463;52.214;21.238;2023-01-29T04:49:26;11.10;;;5.80;;
56581;SDS011;42463;52.214;21.238;2023-01-29T04:51:57;11.20;;;6.60;;
56581;SDS011;42463;52.214;21.238;2023-01-29T04:54:52;10.10;;;6.10;;
56581;SDS011;42463;52.214;21.238;2023-01-29T04:57:40;10.10;;;5.70;;
56581;SDS011;42463;52.214;21.238;2023-01-29T05:00:32;10.90;;;6.70;;
56581;SDS011;42463;52.214;21.238;2023-01-29T05:03:06;11.00;;;6.50;;
56581;SDS011;42463;52.214;21.238;2023-01-29T05:05:47;10.50;;;6.20;;
56581;SDS011;42463;52.214;21.238;2023-01-29T05:08:16;12.00;;;6.50;;
56581;SDS011;42463;52.214;21.238;2023-01-29T05:10:45;12.60;;;6.30;;
56581;SDS011;42463;52.214;21.238;2023-01-29T05:13:24;9.00;;;5.80;;
56581;SDS011;42463;52.214;21.238;2023-01-29T05:15:53;10.90;;;5.80;;
56581;SDS011;42463;52.214;21.238;2023-01-29T05:18:26;12.20;;;6.50;;
56581;SDS011;42463;52.214;21.238;2023-01-29T05:20:52;13.10;;;7.10;;
56581;SDS011;42463;52.214;21.238;2023-01-29T05:23:21;12.20;;;6.50;;
56581;SDS011;42463;52.214;21.238;2023-01-29T05:25:46;12.20;;;6.50;;
56581;SDS011;42463;52.214;21.238;2023-01-29T05:28:12;10.70;;;7.10;;
56581;SDS011;42463;52.214;21.238;2023-01-29T05:30:38;14.70;;;7.00;;
56581;SDS011;42463;52.214;21.238;2023-01-29T05:33:04;11.30;;;5.50;;
56581;SDS011;42463;52.214;21.238;2023-01-29T05:35:36;12.00;;;6.40;;
56581;SDS011;42463;52.214;21.238;2023-01-29T05:38:04;10.60;;;6.60;;
56581;SDS011;42463;52.214;21.238;2023-01-29T05:40:32;12.20;;;6.40;;
56581;SDS011;42463;52.214;21.238;2023-01-29T05:42:57;10.60;;;6.80;;
56581;SDS011;42463;52.214;21.238;2023-01-29T05:45:29;10.80;;;5.70;;
56581;SDS011;42463;52.214;21.238;2023-01-29T05:47:55;11.10;;;6.00;;
56581;SDS011;42463;52.214;21.238;2023-01-29T05:50:20;11.60;;;6.70;;
56581;SDS011;42463;52.214;21.238;2023-01-29T05:52:48;12.40;;;6.90;;
56581;SDS011;42463;52.214;21.238;2023-01-29T05:55:17;14.20;;;6.60;;
56581;SDS011;42463;52.214;21.238;2023-01-29T05:57:42;11.00;;;5.90;;
56581;SDS011;42463;52.214;21.238;2023-01-29T06:00:08;11.90;;;6.10;;
56581;SDS011;42463;52.214;21.238;2023-01-29T06:02:37;10.50;;;5.90;;
56581;SDS011;42463;52.214;21.238;2023-01-29T06:05:01;14.00;;;7.10;;
56581;SDS011;42463;52.214;21.238;2023-01-29T06:07:27;10.20;;;6.20;;
56581;SDS011;42463;52.214;21.238;2023-01-29T06:09:51;14.00;;;7.50;;
56581;SDS011;42463;52.214;21.238;2023-01-29T06:12:16;12.50;;;6.20;;
56581;SDS011;42463;52.214;21.238;2023-01-29T06:14:43;10.90;;;6.30;;
56581;SDS011;42463;52.214;21.238;2023-01-29T06:17:10;12.80;;;6.30;;
56581;SDS011;42463;52.214;21.238;2023-01-29T06:19:37;10.50;;;6.00;;
56581;SDS011;42463;52.214;21.238;2023-01-29T06:22:05;15.30;;;6.90;;
56581;SDS011;42463;52.214;21.238;2023-01-29T06:24:30;15.40;;;7.60;;
56581;SDS011;42463;52.214;21.238;2023-01-29T06:26:55;8.50;;;5.30;;
56581;SDS011;42463;52.214;21.238;2023-01-29T06:29:20;16.20;;;7.30;;
56581;SDS011;42463;52.214;21.238;2023-01-29T06:31:44;14.80;;;6.80;;
56581;SDS011;42463;52.214;21.238;2023-01-29T06:34:09;15.20;;;7.50;;
56581;SDS011;42463;52.214;21.238;2023-01-29T06:36:37;12.80;;;6.40;;
56581;SDS011;42463;52.214;21.238;2023-01-29T06:39:02;13.10;;;6.80;;
56581;SDS011;42463;52.214;21.238;2023-01-29T06:41:28;10.80;;;6.20;;
56581;SDS011;42463;52.214;21.238;2023-01-29T06:43:54;14.00;;;7.00;;
56581;SDS011;42463;52.214;21.238;2023-01-29T06:46:19;11.00;;;6.10;;
56581;SDS011;42463;52.214;21.238;2023-01-29T06:48:45;14.60;;;8.00;;
56581;SDS011;42463;52.214;21.238;2023-01-29T06:51:11;11.20;;;6.70;;
56581;SDS011;42463;52.214;21.238;2023-01-29T06:53:39;15.20;;;7.70;;
56581;SDS011;42463;52.214;21.238;2023-01-29T06:56:04;14.20;;;7.20;;
56581;SDS011;42463;52.214;21.238;2023-01-29T06:58:30;10.70;;;7.00;;
56581;SDS011;42463;52.214;21.238;2023-01-29T07:01:00;13.50;;;7.80;;
56581;SDS011;42463;52.214;21.238;2023-01-29T07:03:29;15.80;;;8.70;;
56581;SDS011;42463;52.214;21.238;2023-01-29T07:05:54;14.00;;;7.70;;
56581;SDS011;42463;52.214;21.238;2023-01-29T07:08:19;14.80;;;7.80;;
56581;SDS011;42463;52.214;21.238;2023-01-29T07:10:45;14.40;;;7.40;;
56581;SDS011;42463;52.214;21.238;2023-01-29T07:13:11;15.10;;;7.30;;
56581;SDS011;42463;52.214;21.238;2023-01-29T07:15:35;12.90;;;6.80;;
56581;SDS011;42463;52.214;21.238;2023-01-29T07:18:20;13.30;;;7.60;;
56581;SDS011;42463;52.214;21.238;2023-01-29T07:20:45;11.50;;;6.50;;
56581;SDS011;42463;52.214;21.238;2023-01-29T07:23:11;16.50;;;8.30;;
56581;SDS011;42463;52.214;21.238;2023-01-29T07:25:37;12.10;;;6.50;;
56581;SDS011;42463;52.214;21.238;2023-01-29T07:28:04;14.60;;;8.20;;
56581;SDS011;42463;52.214;21.238;2023-01-29T07:30:30;17.10;;;7.60;;
56581;SDS011;42463;52.214;21.238;2023-01-29T07:32:54;16.10;;;7.60;;
56581;SDS011;42463;52.214;21.238;2023-01-29T07:35:23;12.90;;;6.10;;
56581;SDS011;42463;52.214;21.238;2023-01-29T07:37:50;12.40;;;6.20;;
56581;SDS011;42463;52.214;21.238;2023-01-29T07:40:20;14.80;;;7.70;;
56581;SDS011;42463;52.214;21.238;2023-01-29T07:42:45;10.90;;;6.40;;
56581;SDS011;42463;52.214;21.238;2023-01-29T07:45:11;16.40;;;7.60;;
56581;SDS011;42463;52.214;21.238;2023-01-29T07:47:36;14.50;;;6.90;;
56581;SDS011;42463;52.214;21.238;2023-01-29T07:50:01;15.50;;;7.80;;
56581;SDS011;42463;52.214;21.238;2023-01-29T07:52:27;12.70;;;6.20;;
56581;SDS011;42463;52.214;21.238;2023-01-29T07:54:52;15.20;;;7.80;;
56581;SDS011;42463;52.214;21.238;2023-01-29T07:57:17;13.30;;;7.00;;
56581;SDS011;42463;52.214;21.238;2023-01-29T07:59:42;11.60;;;7.10;;
56581;SDS011;42463;52.214;21.238;2023-01-29T08:02:07;13.10;;;6.70;;
56581;SDS011;42463;52.214;21.238;2023-01-29T08:04:32;12.00;;;6.40;;
56581;SDS011;42463;52.214;21.238;2023-01-29T08:06:56;14.60;;;7.60;;
56581;SDS011;42463;52.214;21.238;2023-01-29T08:09:21;13.10;;;7.60;;
56581;SDS011;42463;52.214;21.238;2023-01-29T08:11:48;9.90;;;5.40;;
56581;SDS011;42463;52.214;21.238;2023-01-29T08:14:15;9.50;;;5.60;;
56581;SDS011;42463;52.214;21.238;2023-01-29T08:16:40;13.80;;;7.00;;
56581;SDS011;42463;52.214;21.238;2023-01-29T08:19:05;15.40;;;7.50;;
56581;SDS011;42463;52.214;21.238;2023-01-29T08:21:42;13.20;;;6.90;;
56581;SDS011;42463;52.214;21.238;2023-01-29T08:24:07;14.00;;;7.50;;
56581;SDS011;42463;52.214;21.238;2023-01-29T08:26:41;10.70;;;6.60;;
56581;SDS011;42463;52.214;21.238;2023-01-29T08:29:05;14.50;;;7.00;;
56581;SDS011;42463;52.214;21.238;2023-01-29T08:31:30;12.60;;;7.30;;
56581;SDS011;42463;52.214;21.238;2023-01-29T08:33:56;11.00;;;6.40;;
56581;SDS011;42463;52.214;21.238;2023-01-29T08:36:20;14.70;;;7.50;;
56581;SDS011;42463;52.214;21.238;2023-01-29T08:38:54;13.60;;;7.10;;
56581;SDS011;42463;52.214;21.238;2023-01-29T08:41:19;16.80;;;7.50;;
56581;SDS011;42463;52.214;21.238;2023-01-29T08:43:44;14.00;;;6.90;;
56581;SDS011;42463;52.214;21.238;2023-01-29T08:46:17;13.70;;;7.60;;
56581;SDS011;42463;52.214;21.238;2023-01-29T08:48:55;12.30;;;6.90;;
56581;SDS011;42463;52.214;21.238;2023-01-29T08:51:20;13.90;;;7.40;;
56581;SDS011;42463;52.214;21.238;2023-01-29T08:53:46;11.90;;;7.40;;
56581;SDS011;42463;52.214;21.238;2023-01-29T08:56:24;14.60;;;7.70;;
56581;SDS011;42463;52.214;21.238;2023-01-29T08:58:52;11.90;;;6.70;;
56581;SDS011;42463;52.214;21.238;2023-01-29T09:01:26;13.10;;;7.20;;
56581;SDS011;42463;52.214;21.238;2023-01-29T09:03:53;14.80;;;7.20;;
56581;SDS011;42463;52.214;21.238;2023-01-29T09:06:29;15.20;;;8.00;;
56581;SDS011;42463;52.214;21.238;2023-01-29T09:09:12;14.20;;;7.40;;
56581;SDS011;42463;52.214;21.238;2023-01-29T09:11:37;13.10;;;6.80;;
56581;SDS011;42463;52.214;21.238;2023-01-29T09:14:02;12.30;;;6.60;;
56581;SDS011;42463;52.214;21.238;2023-01-29T09:16:36;12.00;;;7.50;;
56581;SDS011;42463;52.214;21.238;2023-01-29T09:19:14;17.10;;;7.50;;
56581;SDS011;42463;52.214;21.238;2023-01-29T09:21:59;11.00;;;6.50;;
56581;SDS011;42463;52.214;21.238;2023-01-29T09:24:23;13.90;;;7.20;;
56581;SDS011;42463;52.214;21.238;2023-01-29T09:26:59;12.70;;;6.40;;
56581;SDS011;42463;52.214;21.238;2023-01-29T09:29:35;12.00;;;6.60;;
56581;SDS011;42463;52.214;21.238;2023-01-29T09:32:09;12.90;;;7.40;;
56581;SDS011;42463;52.214;21.238;2023-01-29T09:34:53;13.40;;;6.90;;
56581;SDS011;42463;52.214;21.238;2023-01-29T09:37:18;13.90;;;6.50;;
56581;SDS011;42463;52.214;21.238;2023-01-29T09:39:55;14.90;;;8.00;;
56581;SDS011;42463;52.214;21.238;2023-01-29T09:42:20;12.50;;;6.90;;
56581;SDS011;42463;52.214;21.238;2023-01-29T09:44:59;15.00;;;7.40;;
56581;SDS011;42463;52.214;21.238;2023-01-29T09:47:28;12.10;;;6.70;;
56581;SDS011;42463;52.214;21.238;2023-01-29T09:49:56;13.80;;;7.30;;
56581;SDS011;42463;52.214;21.238;2023-01-29T09:52:26;12.20;;;5.90;;
56581;SDS011;42463;52.214;21.238;2023-01-29T09:54:56;12.50;;;7.10;;
56581;SDS011;42463;52.214;21.238;2023-01-29T09:57:27;17.00;;;8.10;;
56581;SDS011;42463;52.214;21.238;2023-01-29T09:59:56;14.70;;;7.60;;
56581;SDS011;42463;52.214;21.238;2023-01-29T10:02:26;13.60;;;6.80;;
56581;SDS011;42463;52.214;21.238;2023-01-29T10:05:14;15.30;;;7.30;;
56581;SDS011;42463;52.214;21.238;2023-01-29T10:08:00;17.20;;;8.60;;
56581;SDS011;42463;52.214;21.238;2023-01-29T10:10:42;16.60;;;8.10;;
56581;SDS011;42463;52.214;21.238;2023-01-29T10:13:16;11.90;;;6.50;;
56581;SDS011;42463;52.214;21.238;2023-01-29T10:15:56;14.30;;;8.00;;
56581;SDS011;42463;52.214;21.238;2023-01-29T10:18:43;15.50;;;8.10;;
56581;SDS011;42463;52.214;21.238;2023-01-29T10:21:32;16.50;;;7.20;;
56581;SDS011;42463;52.214;21.238;2023-01-29T10:24:22;15.80;;;8.00;;
56581;SDS011;42463;52.214;21.238;2023-01-29T10:26:55;14.40;;;7.60;;
56581;SDS011;42463;52.214;21.238;2023-01-29T10:29:22;12.80;;;8.10;;
56581;SDS011;42463;52.214;21.238;2023-01-29T10:31:54;14.30;;;7.70;;
56581;SDS011;42463;52.214;21.238;2023-01-29T10:34:26;15.20;;;8.10;;
56581;SDS011;42463;52.214;21.238;2023-01-29T10:37:07;15.00;;;8.00;;
56581;SDS011;42463;52.214;21.238;2023-01-29T10:39:59;14.50;;;8.20;;
56581;SDS011;42463;52.214;21.238;2023-01-29T10:42:38;14.40;;;8.50;;
56581;SDS011;42463;52.214;21.238;2023-01-29T10:45:17;16.70;;;8.70;;
56581;SDS011;42463;52.214;21.238;2023-01-29T10:48:00;13.40;;;7.10;;
56581;SDS011;42463;52.214;21.238;2023-01-29T10:50:51;14.50;;;8.30;;
56581;SDS011;42463;52.214;21.238;2023-01-29T10:53:40;16.30;;;9.40;;
56581;SDS011;42463;52.214;21.238;2023-01-29T10:56:28;12.10;;;6.60;;
56581;SDS011;42463;52.214;21.238;2023-01-29T10:59:18;13.20;;;7.50;;
56581;SDS011;42463;52.214;21.238;2023-01-29T11:02:14;16.00;;;9.40;;
56581;SDS011;42463;52.214;21.238;2023-01-29T11:04:40;15.50;;;8.70;;
56581;SDS011;42463;52.214;21.238;2023-01-29T11:07:04;17.80;;;8.40;;
56581;SDS011;42463;52.214;21.238;2023-01-29T11:09:30;12.90;;;7.30;;
56581;SDS011;42463;52.214;21.238;2023-01-29T11:11:59;15.50;;;7.30;;
56581;SDS011;42463;52.214;21.238;2023-01-29T11:14:29;17.00;;;9.00;;
56581;SDS011;42463;52.214;21.238;2023-01-29T11:17:14;14.20;;;8.20;;
56581;SDS011;42463;52.214;21.238;2023-01-29T11:19:43;17.80;;;9.10;;
56581;SDS011;42463;52.214;21.238;2023-01-29T11:22:13;15.50;;;7.10;;
56581;SDS011;42463;52.214;21.238;2023-01-29T11:25:05;18.70;;;9.60;;
56581;SDS011;42463;52.214;21.238;2023-01-29T11:27:53;14.00;;;7.80;;
56581;SDS011;42463;52.214;21.238;2023-01-29T11:30:22;12.50;;;7.40;;
56581;SDS011;42463;52.214;21.238;2023-01-29T11:33:07;15.10;;;7.50;;
56581;SDS011;42463;52.214;21.238;2023-01-29T11:35:40;15.20;;;8.70;;
56581;SDS011;42463;52.214;21.238;2023-01-29T11:38:24;15.60;;;7.80;;
56581;SDS011;42463;52.214;21.238;2023-01-29T11:41:05;13.40;;;7.80;;
56581;SDS011;42463;52.214;21.238;2023-01-29T11:43:38;17.20;;;9.30;;
56581;SDS011;42463;52.214;21.238;2023-01-29T11:46:03;14.30;;;7.80;;
56581;SDS011;42463;52.214;21.238;2023-01-29T11:48:39;14.90;;;8.70;;
56581;SDS011;42463;52.214;21.238;2023-01-29T11:51:06;14.70;;;7.60;;
56581;SDS011;42463;52.214;21.238;2023-01-29T11:53:37;15.70;;;8.20;;
56581;SDS011;42463;52.214;21.238;2023-01-29T11:56:06;15.30;;;8.20;;
56581;SDS011;42463;52.214;21.238;2023-01-29T11:58:41;14.50;;;8.00;;
56581;SDS011;42463;52.214;21.238;2023-01-29T12:01:07;12.60;;;7.70;;
56581;SDS011;42463;52.214;21.238;2023-01-29T12:03:34;13.60;;;7.80;;
56581;SDS011;42463;52.214;21.238;2023-01-29T12:06:05;15.40;;;7.50;;
56581;SDS011;42463;52.214;21.238;2023-01-29T12:08:36;17.50;;;8.60;;
56581;SDS011;42463;52.214;21.238;2023-01-29T12:11:09;13.30;;;8.10;;
56581;SDS011;42463;52.214;21.238;2023-01-29T12:13:36;12.70;;;7.70;;
56581;SDS011;42463;52.214;21.238;2023-01-29T12:16:06;13.20;;;7.70;;
56581;SDS011;42463;52.214;21.238;2023-01-29T12:18:40;13.50;;;7.80;;
56581;SDS011;42463;52.214;21.238;2023-01-29T12:21:11;14.10;;;8.20;;
56581;SDS011;42463;52.214;21.238;2023-01-29T12:23:56;13.00;;;7.70;;
56581;SDS011;42463;52.214;21.238;2023-01-29T12:26:25;13.20;;;7.50;;
56581;SDS011;42463;52.214;21.238;2023-01-29T12:29:06;15.10;;;8.50;;
56581;SDS011;42463;52.214;21.238;2023-01-29T12:31:41;14.40;;;8.30;;
56581;SDS011;42463;52.214;21.238;2023-01-29T12:34:12;14.20;;;8.40;;
56581;SDS011;42463;52.214;21.238;2023-01-29T12:36:54;18.60;;;9.50;;
56581;SDS011;42463;52.214;21.238;2023-01-29T12:42:12;16.80;;;9.70;;
56581;SDS011;42463;52.214;21.238;2023-01-29T12:44:41;19.30;;;10.30;;
56581;SDS011;42463;52.214;21.238;2023-01-29T12:47:11;17.60;;;10.20;;
56581;SDS011;42463;52.214;21.238;2023-01-29T12:49:40;15.60;;;9.70;;
56581;SDS011;42463;52.214;21.238;2023-01-29T12:52:20;16.20;;;8.90;;
56581;SDS011;42463;52.214;21.238;2023-01-29T12:55:02;14.10;;;8.10;;
56581;SDS011;42463;52.214;21.238;2023-01-29T12:57:33;17.80;;;9.50;;
56581;SDS011;42463;52.214;21.238;2023-01-29T13:00:15;18.20;;;10.50;;
56581;SDS011;42463;52.214;21.238;2023-01-29T13:03:06;17.50;;;9.60;;
56581;SDS011;42463;52.214;21.238;2023-01-29T13:06:01;18.90;;;11.00;;
56581;SDS011;42463;52.214;21.238;2023-01-29T13:08:43;16.70;;;9.70;;
56581;SDS011;42463;52.214;21.238;2023-01-29T13:11:34;14.20;;;8.80;;
56581;SDS011;42463;52.214;21.238;2023-01-29T13:14:15;15.60;;;9.30;;
56581;SDS011;42463;52.214;21.238;2023-01-29T13:16:48;16.80;;;9.60;;
56581;SDS011;42463;52.214;21.238;2023-01-29T13:19:39;15.20;;;9.10;;
56581;SDS011;42463;52.214;21.238;2023-01-29T13:22:18;18.30;;;10.20;;
56581;SDS011;42463;52.214;21.238;2023-01-29T13:24:45;17.90;;;9.80;;
56581;SDS011;42463;52.214;21.238;2023-01-29T13:27:18;16.80;;;10.40;;
56581;SDS011;42463;52.214;21.238;2023-01-29T13:29:46;19.00;;;10.00;;
56581;SDS011;42463;52.214;21.238;2023-01-29T13:32:18;16.90;;;9.00;;
56581;SDS011;42463;52.214;21.238;2023-01-29T13:34:47;21.40;;;10.50;;
56581;SDS011;42463;52.214;21.238;2023-01-29T13:37:16;17.80;;;10.20;;
56581;SDS011;42463;52.214;21.238;2023-01-29T13:39:58;16.10;;;8.10;;
56581;SDS011;42463;52.214;21.238;2023-01-29T13:42:36;23.40;;;12.10;;
56581;SDS011;42463;52.214;21.238;2023-01-29T13:45:33;20.60;;;10.40;;
56581;SDS011;42463;52.214;21.238;2023-01-29T13:48:11;18.60;;;10.10;;
56581;SDS011;42463;52.214;21.238;2023-01-29T13:51:10;19.40;;;10.60;;
56581;SDS011;42463;52.214;21.238;2023-01-29T13:54:01;20.90;;;11.40;;
56581;SDS011;42463;52.214;21.238;2023-01-29T13:56:29;18.80;;;9.00;;
56581;SDS011;42463;52.214;21.238;2023-01-29T13:59:19;20.10;;;10.50;;
56581;SDS011;42463;52.214;21.238;2023-01-29T14:02:01;16.00;;;8.30;;
56581;SDS011;42463;52.214;21.238;2023-01-29T14:04:42;18.30;;;9.70;;
56581;SDS011;42463;52.214;21.238;2023-01-29T14:07:37;20.50;;;11.00;;
56581;SDS011;42463;52.214;21.238;2023-01-29T14:10:14;17.80;;;9.70;;
56581;SDS011;42463;52.214;21.238;2023-01-29T14:12:41;23.50;;;11.20;;
56581;SDS011;42463;52.214;21.238;2023-01-29T14:15:20;17.40;;;11.20;;
56581;SDS011;42463;52.214;21.238;2023-01-29T14:21:00;16.40;;;9.80;;
56581;SDS011;42463;52.214;21.238;2023-01-29T14:26:18;21.00;;;11.10;;
56581;SDS011;42463;52.214;21.238;2023-01-29T14:29:03;18.70;;;10.60;;
56581;SDS011;42463;52.214;21.238;2023-01-29T14:31:42;18.30;;;10.40;;
56581;SDS011;42463;52.214;21.238;2023-01-29T14:34:19;21.30;;;11.30;;
56581;SDS011;42463;52.214;21.238;2023-01-29T14:36:50;23.90;;;11.50;;
56581;SDS011;42463;52.214;21.238;2023-01-29T14:39:21;22.60;;;12.00;;
56581;SDS011;42463;52.214;21.238;2023-01-29T14:41:59;21.60;;;11.40;;
56581;SDS011;42463;52.214;21.238;2023-01-29T14:50:59;20.90;;;11.60;;
56581;SDS011;42463;52.214;21.238;2023-01-29T14:53:33;18.70;;;11.10;;
56581;SDS011;42463;52.214;21.238;2023-01-29T14:56:15;22.30;;;12.90;;
56581;SDS011;42463;52.214;21.238;2023-01-29T14:58:50;26.00;;;13.10;;
56581;SDS011;42463;52.214;21.238;2023-01-29T15:01:20;27.10;;;13.50;;
56581;SDS011;42463;52.214;21.238;2023-01-29T15:03:49;28.40;;;13.20;;
56581;SDS011;42463;52.214;21.238;2023-01-29T15:06:16;30.50;;;15.50;;
56581;SDS011;42463;52.214;21.238;2023-01-29T15:08:47;29.10;;;14.60;;
56581;SDS011;42463;52.214;21.238;2023-01-29T15:11:21;24.50;;;13.00;;
56581;SDS011;42463;52.214;21.238;2023-01-29T15:14:01;23.10;;;11.60;;
56581;SDS011;42463;52.214;21.238;2023-01-29T15:16:58;25.40;;;11.80;;
56581;SDS011;42463;52.214;21.238;2023-01-29T15:19:48;25.60;;;12.80;;
56581;SDS011;42463;52.214;21.238;2023-01-29T15:22:39;25.70;;;13.00;;
56581;SDS011;42463;52.214;21.238;2023-01-29T15:25:12;25.10;;;12.60;;
56581;SDS011;42463;52.214;21.238;2023-01-29T15:30:21;21.80;;;11.20;;